Airfield :
LOGIN :

Register | Disclaimer

   EN    FR    IT 

 










Legend :    VFR   Marginal VFR   IFR   Intensive IFR   Very Intensive IFR
Visi :
Ceiling :
>= 8 km
>= 3000ft
5 to 8 km
1000 to 3000 ft
1500m to 5 km
500 to 1000 ft
800 to 1500m
200 to 500 ft
< 800m
< 200 ft
Symbols :   Thunderstorms  Fog  Heavy snow  Heavy precipitations  Wind > 20 kt
SIGMETs :     Misc.  Thunderstorms  Icing  Turbulence  Mountain Waves  Volcanic Ashes






- Airport Elevation : 162 ft
- IATA code : BOD


LFBD - Bordeaux / Merignac

CURRENT METAR :
  • 170430Z AUTO 23001KT 1100 0900 R23/1200U R05/1300D R29/1400D BCFG VV/// 03/02 Q1009 TEMPO 0300 FG

EXPIRED METARs :
  • 170400Z AUTO 00000KT 0600 0500 R23/1000N R05/0600U R29/0700N FG VV/// 03/03 Q1009 TEMPO 0300 FG
  • 170330Z AUTO VRB01KT 0750 0550 R23/0900N R05/0650U R29/1100U FG VV/// 03/03 Q1009 TEMPO 0300 FG
  • 170300Z AUTO 31002KT 0800 0700 R23/1000U R05/0750D R29/1000N FG VV/// 04/03 Q1009 TEMPO 0300 FG
  • 170230Z AUTO 26002KT 0700 0450 R23/0600N R05/0700D R29/1400U FG VV/// 04/03 Q1009 TEMPO 0300 FG
  • 170200Z AUTO 25003KT 0700 0500 R23/0600U R05/0650D R29/1100D FG VV/// 04/04 Q1009 TEMPO 0300 FG
  • 170130Z AUTO VRB02KT 0900 0600 R23/1400D R05/0600D R29/0750D FG FEW001 SCT043 BKN060 05/04 Q1009 TEMPO 0500 FG

TAF AMD TAF LFBD
Valid from the 17 at 01:00 until the 18 at 06:00 UTC


170141Z 1701/1806 22008KT 6000 BKN030 TX10/1713Z TN03/1701Z
PROB40
TEMPO 1701/1710 0300 FG VV///
PROB40 1710/1718 OVC005
TEMPO 1800/1806 BKN006
ATIS : +33 5 57 92 81 04



MET'MAP, your aeronautical weather chart ! - Copyright ORBIFLY December 2007 - Disclaimer

ORBIFLY MET'MAP TEAM :

Programming & Development : Alexandra Zaïnal
Concept & Development : Baudouin d'Aumeries
Co-Development & Prog : Marc-Olivier Méhu
Technical & hardware support : Manuel Goepfert

Contact : metmap@orbifly.com




SOURCES & CREDITS :

   NOAA